Brownhelm, Ohio
Current Conditions -  °F | °C
As of 6:53 PM on Wednesday 26 Nov 2014 (Local Time) from KLPR Reporting Station
Overcast Overcast  
Wind Chill: 29°   Ceiling: 4400
Heat Index: 33°   Visibility: 10mi
Dew Point: 28°   Wind: 5mph
Humidity: 82%   Direction: 320°NW
Pressure: 30.05"   Gusts: NA
Location:  41.3705°N, 82.2583°W
Report Text: KLPR 262353Z AUTO 32004KT 10SM OVC044 01/M02 A3005 RMK AO2 SLP183 T00061022 10022 20000 58002 TSNO
Loading
Personal Weather Stations






























Interactive Weather Map New forecast layout! Learn more

10-Day Weather Forecast

Advertisements
Track Severe Weather on mobile